Time;durP1;ratioP1;P1;durP2;ratioP2;P2;SDS_P1;SDS_P2;PMS_P1;PMS_P2;Temp;Humidity;BMP_temperature;BMP_pressure;BME280_temperature;BME280_humidity;BME280_pressure;Samples;Min_cycle;Max_cycle;Signal;HPM_P1;HPM_P2
2022/04/23 00:02:17;;;;;;;12.37;9.63;;;11.50;99.90;;;;;;5100381;28;20081;-76
2022/04/23 00:04:44;;;;;;;14.20;9.57;;;11.40;99.90;;;;;;5092779;28;20044;-77
2022/04/23 00:07:10;;;;;;;13.43;9.50;;;11.40;99.90;;;;;;5095152;28;20088;-76
2022/04/23 00:09:35;;;;;;;16.27;10.57;;;11.40;99.90;;;;;;5109967;28;20040;-75
2022/04/23 00:12:02;;;;;;;10.40;9.27;;;11.40;99.90;;;;;;5093266;28;20045;-76
2022/04/23 00:14:28;;;;;;;12.93;9.17;;;11.30;99.90;;;;;;5098864;28;20044;-76
2022/04/23 00:16:54;;;;;;;12.43;9.93;;;11.30;99.90;;;;;;5099895;28;20157;-76
2022/04/23 00:19:21;;;;;;;11.90;9.80;;;11.20;99.90;;;;;;5113928;28;20067;-75
2022/04/23 00:21:48;;;;;;;11.83;9.67;;;11.30;99.90;;;;;;5114915;28;20044;-75
2022/04/23 00:24:13;;;;;;;12.07;9.53;;;11.30;99.90;;;;;;5103383;28;20044;-77
2022/04/23 00:26:40;;;;;;;11.33;9.73;;;11.20;99.90;;;;;;5108375;28;20127;-78
2022/04/23 00:29:06;;;;;;;16.13;11.03;;;11.20;99.90;;;;;;5092717;28;20032;-76
2022/04/23 00:31:32;;;;;;;16.90;10.97;;;11.10;99.90;;;;;;5079553;28;20040;-76
2022/04/23 00:33:59;;;;;;;13.43;10.97;;;11.10;99.90;;;;;;5053268;28;20043;-75
2022/04/23 00:36:24;;;;;;;14.50;10.57;;;11.20;99.90;;;;;;5083851;28;20060;-75
2022/04/23 00:38:52;;;;;;;15.13;11.00;;;11.00;99.90;;;;;;5074521;28;20052;-76
2022/04/23 00:44:04;;;;;;;14.87;11.30;;;11.00;99.90;;;;;;5092732;28;20654;-75
2022/04/23 00:46:30;;;;;;;13.97;11.40;;;10.90;99.90;;;;;;5097479;28;20048;-75
2022/04/23 00:48:58;;;;;;;15.50;12.20;;;10.90;99.90;;;;;;5097271;28;20047;-76
2022/04/23 00:51:25;;;;;;;12.83;11.43;;;10.90;99.90;;;;;;5111530;28;20104;-75
2022/04/23 00:53:53;;;;;;;17.07;11.97;;;10.90;99.90;;;;;;5101749;28;20097;-76
2022/04/23 00:56:19;;;;;;;16.43;12.40;;;10.80;99.90;;;;;;5093377;28;20049;-75
2022/04/23 00:58:45;;;;;;;15.63;12.63;;;10.90;99.90;;;;;;5096247;28;20048;-74
2022/04/23 01:01:11;;;;;;;15.77;12.27;;;10.80;99.90;;;;;;5098198;28;20036;-77
2022/04/23 01:03:37;;;;;;;15.90;12.50;;;10.80;99.90;;;;;;5099146;28;20073;-75
2022/04/23 01:06:04;;;;;;;16.30;12.00;;;10.80;99.90;;;;;;5109745;28;20071;-75
2022/04/23 01:08:31;;;;;;;16.63;12.23;;;10.80;99.90;;;;;;5110458;28;20039;-75
2022/04/23 01:10:59;;;;;;;13.73;12.23;;;10.80;99.90;;;;;;5093712;28;20059;-75
2022/04/23 01:13:25;;;;;;;13.17;11.43;;;10.80;99.90;;;;;;5109371;28;20097;-75
2022/04/23 01:15:57;;;;;;;18.70;12.90;;;10.80;99.90;;;;;;5104955;28;20047;-77
2022/04/23 01:18:23;;;;;;;14.67;12.33;;;10.70;99.90;;;;;;5101821;28;20081;-75
2022/04/23 01:20:51;;;;;;;16.00;12.40;;;10.70;99.90;;;;;;5081465;28;20105;-76
2022/04/23 01:23:17;;;;;;;17.43;12.67;;;10.60;99.90;;;;;;5098446;28;20043;-75
2022/04/23 01:25:43;;;;;;;15.97;12.23;;;10.70;99.90;;;;;;5106968;28;20040;-76
2022/04/23 01:28:10;;;;;;;15.10;11.57;;;10.60;99.90;;;;;;5109717;28;20493;-76
2022/04/23 01:30:35;;;;;;;13.53;11.27;;;10.60;99.90;;;;;;5102893;28;20056;-75
2022/04/23 01:33:01;;;;;;;13.83;11.80;;;10.60;99.90;;;;;;5111900;28;20052;-76
2022/04/23 01:35:27;;;;;;;15.00;11.00;;;10.60;99.90;;;;;;5096757;28;20479;-76
2022/04/23 01:37:54;;;;;;;14.20;11.17;;;10.50;99.90;;;;;;5086757;28;20056;-76
2022/04/23 01:40:21;;;;;;;16.87;11.80;;;10.50;99.90;;;;;;5113841;28;20040;-76
2022/04/23 01:42:46;;;;;;;12.70;10.50;;;10.50;99.90;;;;;;5122107;28;20028;-78
2022/04/23 01:45:12;;;;;;;12.87;10.53;;;10.50;99.90;;;;;;5109365;28;20043;-75
2022/04/23 01:47:38;;;;;;;17.40;11.03;;;10.50;99.90;;;;;;5112657;28;20155;-77
2022/04/23 01:50:05;;;;;;;16.53;11.03;;;10.50;99.90;;;;;;5099359;28;20051;-76
2022/04/23 01:52:31;;;;;;;15.33;10.83;;;10.60;99.90;;;;;;5095241;28;20068;-76
2022/04/23 01:54:58;;;;;;;16.67;11.33;;;10.50;99.90;;;;;;5112501;28;20045;-75
2022/04/23 01:57:23;;;;;;;12.83;10.10;;;10.50;99.90;;;;;;5104746;28;20123;-75
2022/04/23 01:59:49;;;;;;;15.10;10.00;;;10.50;99.90;;;;;;5115340;28;20048;-78
2022/04/23 02:02:17;;;;;;;13.20;9.87;;;10.50;99.90;;;;;;5103870;28;20052;-78
2022/04/23 02:04:42;;;;;;;15.40;9.70;;;10.50;99.90;;;;;;5106521;28;20048;-74
2022/04/23 02:07:09;;;;;;;15.60;9.73;;;10.50;99.90;;;;;;5095560;28;20115;-74
2022/04/23 02:09:35;;;;;;;15.37;9.80;;;10.50;99.90;;;;;;5106764;28;20064;-77
2022/04/23 02:12:03;;;;;;;13.90;10.13;;;10.50;99.90;;;;;;5108929;28;20176;-76
2022/04/23 02:14:29;;;;;;;13.53;10.03;;;10.50;99.90;;;;;;5088031;28;20089;-77
2022/04/23 02:16:54;;;;;;;13.13;9.43;;;10.40;99.90;;;;;;5107380;28;20039;-74
2022/04/23 02:19:22;;;;;;;15.33;9.80;;;10.40;99.90;;;;;;5109530;28;20555;-75
2022/04/23 02:21:49;;;;;;;15.50;9.83;;;10.40;99.90;;;;;;5081149;28;20040;-75
2022/04/23 02:24:15;;;;;;;14.60;9.97;;;10.40;99.90;;;;;;5104283;28;20048;-75
2022/04/23 02:26:43;;;;;;;11.20;9.43;;;10.30;99.90;;;;;;5104446;28;20043;-75
2022/04/23 02:29:11;;;;;;;13.40;10.60;;;10.30;99.90;;;;;;5115626;28;20334;-75
2022/04/23 02:31:36;;;;;;;13.07;10.23;;;10.30;99.90;;;;;;5091123;28;20052;-76
2022/04/23 02:34:02;;;;;;;13.03;9.77;;;10.30;99.90;;;;;;5106222;28;20099;-78
2022/04/23 02:36:28;;;;;;;13.53;10.27;;;10.20;99.90;;;;;;5105976;28;20044;-74
2022/04/23 02:38:54;;;;;;;15.67;9.90;;;10.20;99.90;;;;;;5049415;28;20068;-76
2022/04/23 02:41:19;;;;;;;21.33;10.07;;;10.20;99.90;;;;;;5097277;28;20067;-76
2022/04/23 02:43:45;;;;;;;14.87;10.77;;;10.20;99.90;;;;;;5064320;28;20052;-77
2022/04/23 02:46:14;;;;;;;15.20;10.30;;;10.10;99.90;;;;;;5108349;28;20088;-75
2022/04/23 02:48:40;;;;;;;14.33;9.77;;;10.10;99.90;;;;;;5112434;28;20050;-76
2022/04/23 02:51:06;;;;;;;15.67;10.67;;;10.10;99.90;;;;;;5103792;28;20122;-76
2022/04/23 02:53:32;;;;;;;16.00;10.77;;;10.10;99.90;;;;;;5107320;28;20052;-76
2022/04/23 02:55:57;;;;;;;13.70;10.43;;;10.00;99.90;;;;;;5096414;28;20036;-74
2022/04/23 02:58:27;;;;;;;16.43;10.73;;;10.00;99.90;;;;;;5080949;28;20077;-76
2022/04/23 03:00:53;;;;;;;12.83;10.47;;;10.00;99.90;;;;;;5108223;28;20052;-75
2022/04/23 03:03:21;;;;;;;14.60;10.77;;;10.00;99.90;;;;;;5111083;28;20050;-78
2022/04/23 03:05:47;;;;;;;19.63;10.87;;;10.00;99.90;;;;;;5097647;28;20048;-75
2022/04/23 03:08:14;;;;;;;14.80;11.17;;;10.00;99.90;;;;;;5084469;28;20039;-75
2022/04/23 03:10:40;;;;;;;14.83;10.60;;;10.00;99.90;;;;;;5100288;28;20078;-75
2022/04/23 03:13:07;;;;;;;15.87;10.47;;;9.90;99.90;;;;;;5107577;28;20040;-76
2022/04/23 03:15:34;;;;;;;13.27;10.67;;;9.90;99.90;;;;;;5099129;28;20042;-75
2022/04/23 03:18:04;;;;;;;16.00;10.70;;;9.90;99.90;;;;;;5104835;28;20043;-75
2022/04/23 03:20:32;;;;;;;14.97;11.13;;;9.90;99.90;;;;;;5099162;28;20119;-75
2022/04/23 03:22:58;;;;;;;16.80;11.10;;;9.90;99.90;;;;;;5096204;28;20052;-76
2022/04/23 03:25:24;;;;;;;14.03;10.33;;;9.80;99.90;;;;;;5109146;28;20414;-76
2022/04/23 03:27:50;;;;;;;15.87;10.53;;;9.80;99.90;;;;;;5077181;28;20040;-76
2022/04/23 03:30:16;;;;;;;13.67;10.73;;;9.80;99.90;;;;;;5109128;28;20172;-74
2022/04/23 03:32:42;;;;;;;13.83;10.33;;;9.80;99.90;;;;;;5107553;28;20040;-76
2022/04/23 03:35:08;;;;;;;14.07;10.87;;;9.70;99.90;;;;;;5103652;28;20050;-75
2022/04/23 03:37:38;;;;;;;17.10;10.47;;;9.70;99.90;;;;;;5069014;28;20068;-75
2022/04/23 03:40:05;;;;;;;16.67;10.97;;;9.70;99.90;;;;;;5107046;28;20044;-76
2022/04/23 03:42:31;;;;;;;14.77;11.23;;;9.70;99.90;;;;;;5104112;28;20063;-76
2022/04/23 03:44:57;;;;;;;15.50;11.30;;;9.70;99.90;;;;;;5077931;28;20040;-75
2022/04/23 03:47:23;;;;;;;14.17;10.43;;;9.60;99.90;;;;;;5108127;28;20050;-76
2022/04/23 03:49:50;;;;;;;16.23;10.63;;;9.60;99.90;;;;;;5100878;28;20044;-75
2022/04/23 03:52:15;;;;;;;13.57;10.33;;;9.60;99.90;;;;;;5109202;28;20527;-75
2022/04/23 03:54:42;;;;;;;13.67;10.53;;;9.60;99.90;;;;;;5106703;28;20107;-76
2022/04/23 03:57:08;;;;;;;14.23;10.63;;;9.60;99.90;;;;;;5104485;28;20035;-76
2022/04/23 03:59:37;;;;;;;15.53;10.97;;;9.50;99.90;;;;;;5113389;28;20089;-78
2022/04/23 04:02:04;;;;;;;13.20;9.87;;;9.60;99.90;;;;;;5087548;28;20055;-76
2022/04/23 04:04:31;;;;;;;13.87;10.33;;;9.50;99.90;;;;;;5110823;28;20068;-76
2022/04/23 04:06:57;;;;;;;14.23;10.60;;;9.50;99.90;;;;;;5090965;28;20044;-74
2022/04/23 04:09:23;;;;;;;16.13;10.80;;;9.50;99.90;;;;;;5077884;28;20052;-76
2022/04/23 04:12:02;;;;;;;15.50;10.90;;;9.40;99.90;;;;;;5102925;28;20071;-76
2022/04/23 04:14:28;;;;;;;14.03;10.27;;;9.40;99.90;;;;;;5105307;28;20567;-76
2022/04/23 04:16:54;;;;;;;14.63;10.87;;;9.40;99.90;;;;;;5092646;28;20043;-78
2022/04/23 04:19:21;;;;;;;14.10;10.50;;;9.40;99.90;;;;;;5110254;28;20562;-75
2022/04/23 04:21:47;;;;;;;12.27;9.97;;;9.40;99.90;;;;;;5105092;28;20048;-76
2022/04/23 04:24:13;;;;;;;15.70;10.90;;;9.30;99.90;;;;;;5086248;28;20040;-75
2022/04/23 04:26:41;;;;;;;16.40;11.43;;;9.40;99.90;;;;;;5099515;28;20050;-76
2022/04/23 04:29:08;;;;;;;14.80;10.47;;;9.30;99.90;;;;;;5117394;28;20028;-76
2022/04/23 04:31:47;;;;;;;15.97;11.23;;;9.30;99.90;;;;;;5109952;28;20086;-76
2022/04/23 04:34:13;;;;;;;13.77;10.53;;;9.30;99.90;;;;;;5106816;28;20170;-75
2022/04/23 04:36:39;;;;;;;14.93;11.17;;;9.30;99.90;;;;;;5107747;28;20569;-77
2022/04/23 04:39:04;;;;;;;17.57;10.87;;;9.20;99.90;;;;;;5102767;28;20117;-77
2022/04/23 04:41:31;;;;;;;12.73;10.30;;;9.40;99.90;;;;;;5114208;28;20035;-76
2022/04/23 04:43:57;;;;;;;13.23;11.00;;;9.20;99.90;;;;;;5108715;28;20040;-76
2022/04/23 04:46:24;;;;;;;16.43;10.50;;;9.30;99.90;;;;;;5086310;28;20079;-75
2022/04/23 04:48:52;;;;;;;13.53;10.03;;;9.30;99.90;;;;;;5099346;28;20051;-77
2022/04/23 04:51:17;;;;;;;15.40;11.13;;;9.30;99.90;;;;;;5116563;28;20040;-76
2022/04/23 04:53:43;;;;;;;12.03;10.13;;;9.30;99.90;;;;;;5110110;28;20474;-76
2022/04/23 04:56:09;;;;;;;13.03;9.90;;;9.30;99.90;;;;;;5104646;28;20414;-75
2022/04/23 04:58:35;;;;;;;12.23;10.03;;;9.30;99.90;;;;;;5116509;28;20039;-76
2022/04/23 05:01:01;;;;;;;11.57;9.53;;;9.20;99.90;;;;;;5109272;28;20054;-76
2022/04/23 05:03:28;;;;;;;12.17;9.37;;;9.30;99.90;;;;;;5103667;28;20064;-73
2022/04/23 05:05:54;;;;;;;11.43;9.93;;;9.40;99.90;;;;;;5109359;28;20044;-76
2022/04/23 05:08:20;;;;;;;12.00;9.93;;;9.40;99.90;;;;;;5088045;28;20040;-76
2022/04/23 05:10:46;;;;;;;15.60;9.80;;;9.40;99.90;;;;;;5114441;28;20458;-76
2022/04/23 05:13:13;;;;;;;12.07;10.00;;;9.40;99.90;;;;;;5118803;28;20039;-76
2022/04/23 05:15:39;;;;;;;13.53;10.07;;;9.40;99.90;;;;;;5108411;28;20099;-76
2022/04/23 05:18:05;;;;;;;13.40;9.60;;;9.40;99.90;;;;;;5112147;28;20090;-76
2022/04/23 05:20:32;;;;;;;11.63;10.03;;;9.50;99.90;;;;;;5104579;28;20044;-76
2022/04/23 05:22:58;;;;;;;11.50;9.47;;;9.60;99.90;;;;;;5119660;28;20078;-75
2022/04/23 05:25:24;;;;;;;11.90;10.10;;;9.60;99.90;;;;;;5108498;28;20052;-75
2022/04/23 05:27:49;;;;;;;10.23;8.83;;;9.70;99.90;;;;;;5109473;28;20039;-76
2022/04/23 05:30:15;;;;;;;11.87;9.50;;;9.90;99.90;;;;;;5115500;28;20043;-76
2022/04/23 05:32:41;;;;;;;11.40;9.20;;;10.10;99.90;;;;;;5110350;28;20036;-76
2022/04/23 05:35:07;;;;;;;12.53;9.03;;;10.30;99.90;;;;;;5104912;28;20047;-77
2022/04/23 05:37:34;;;;;;;10.93;9.30;;;10.40;99.90;;;;;;5111489;28;20039;-74
2022/04/23 05:40:00;;;;;;;12.93;9.30;;;10.30;99.90;;;;;;5070483;28;20067;-78
2022/04/23 05:42:26;;;;;;;10.53;9.47;;;10.40;99.90;;;;;;5056537;28;20050;-75
2022/04/23 05:44:52;;;;;;;10.70;9.40;;;10.30;99.90;;;;;;5115042;28;20100;-74
2022/04/23 05:47:18;;;;;;;12.83;9.70;;;10.30;99.90;;;;;;5097653;28;20071;-76
2022/04/23 05:49:44;;;;;;;11.63;9.67;;;10.30;99.90;;;;;;5122832;28;20043;-77
2022/04/23 05:52:10;;;;;;;11.80;9.43;;;10.30;99.90;;;;;;5080562;28;20048;-78
2022/04/23 05:54:37;;;;;;;11.20;9.17;;;10.30;99.90;;;;;;5088649;28;20070;-76
2022/04/23 05:57:03;;;;;;;12.07;8.80;;;10.30;99.90;;;;;;5108498;28;20032;-77
2022/04/23 05:59:31;;;;;;;10.77;9.30;;;10.30;99.90;;;;;;5106510;28;20062;-75
2022/04/23 06:01:57;;;;;;;12.03;9.70;;;10.30;99.90;;;;;;5095553;28;20039;-75
2022/04/23 06:04:23;;;;;;;12.30;9.77;;;10.40;99.90;;;;;;5123078;28;20044;-74
2022/04/23 06:06:49;;;;;;;12.20;9.43;;;10.40;99.90;;;;;;5092092;28;20036;-76
2022/04/23 06:09:15;;;;;;;11.63;9.43;;;10.60;99.90;;;;;;5043339;28;20047;-75
2022/04/23 06:11:42;;;;;;;11.67;9.70;;;10.80;99.90;;;;;;5096747;28;20502;-76
2022/04/23 06:14:07;;;;;;;15.47;9.53;;;11.50;99.90;;;;;;5090413;28;20043;-74
2022/04/23 06:16:34;;;;;;;10.57;9.10;;;12.30;99.90;;;;;;5078864;28;20070;-76
2022/04/23 06:19:01;;;;;;;9.83;8.83;;;13.00;99.90;;;;;;5097692;28;20050;-76
2022/04/23 06:21:27;;;;;;;9.97;8.97;;;13.60;99.90;;;;;;5109974;28;20166;-75
2022/04/23 06:23:54;;;;;;;10.17;8.77;;;14.00;99.90;;;;;;5080179;28;20079;-75
2022/04/23 06:26:21;;;;;;;11.97;8.20;;;14.40;99.90;;;;;;5083145;28;20043;-76
2022/04/23 06:28:48;;;;;;;9.70;8.37;;;14.80;99.90;;;;;;5069594;28;20048;-75
2022/04/23 06:31:14;;;;;;;11.23;8.77;;;15.20;99.60;;;;;;5088669;28;20518;-78
2022/04/23 06:33:42;;;;;;;11.83;7.90;;;15.30;98.50;;;;;;5103694;28;20043;-76
2022/04/23 06:36:10;;;;;;;11.37;8.87;;;15.50;97.60;;;;;;5088162;28;20543;-75
2022/04/23 06:38:35;;;;;;;9.57;8.53;;;15.80;97.00;;;;;;5080172;28;20124;-76
2022/04/23 06:41:02;;;;;;;9.30;8.27;;;16.10;96.10;;;;;;5100613;28;20484;-75
2022/04/23 06:43:28;;;;;;;11.27;8.13;;;16.10;95.90;;;;;;5113024;28;20510;-77
2022/04/23 06:45:55;;;;;;;9.77;8.73;;;16.10;95.00;;;;;;5083118;28;20047;-75
2022/04/23 06:48:20;;;;;;;11.10;8.40;;;16.10;95.60;;;;;;5104011;28;20048;-75
2022/04/23 06:50:46;;;;;;;10.30;9.07;;;16.20;94.50;;;;;;5084365;28;20042;-78
2022/04/23 06:53:12;;;;;;;9.97;8.47;;;16.00;94.60;;;;;;5071859;28;20064;-76
2022/04/23 06:55:38;;;;;;;13.60;9.10;;;15.90;95.10;;;;;;5063553;28;20047;-77
2022/04/23 06:58:04;;;;;;;9.93;7.80;;;16.30;94.90;;;;;;5090748;28;20564;-76
2022/04/23 07:00:29;;;;;;;11.60;9.20;;;16.70;94.30;;;;;;5076117;28;20047;-75
2022/04/23 07:02:56;;;;;;;15.17;9.37;;;16.90;93.90;;;;;;5108993;28;20039;-75
2022/04/23 07:05:22;;;;;;;11.47;9.67;;;16.90;93.20;;;;;;5063302;28;20469;-75
2022/04/23 07:07:57;;;;;;;11.17;8.93;;;16.50;93.10;;;;;;5066304;28;20109;-76
2022/04/23 07:10:25;;;;;;;9.93;8.73;;;16.10;93.60;;;;;;5097474;28;20028;-77
2022/04/23 07:12:52;;;;;;;16.80;9.87;;;15.60;94.00;;;;;;5101903;28;20050;-73
2022/04/23 07:15:18;;;;;;;10.40;8.73;;;15.30;94.10;;;;;;5089346;28;20043;-75
2022/04/23 07:17:44;;;;;;;11.23;9.27;;;15.00;94.50;;;;;;5103360;28;20081;-76
2022/04/23 07:20:11;;;;;;;11.20;9.60;;;14.80;96.50;;;;;;5094650;28;20036;-74
2022/04/23 07:22:37;;;;;;;10.63;9.53;;;14.80;96.90;;;;;;5107135;28;20051;-76
2022/04/23 07:25:03;;;;;;;11.43;9.67;;;14.50;97.30;;;;;;5099749;28;20043;-75
2022/04/23 07:27:29;;;;;;;11.60;9.17;;;14.40;98.10;;;;;;5099936;28;20465;-76
2022/04/23 07:29:56;;;;;;;12.53;9.10;;;14.30;97.80;;;;;;5075924;28;20039;-76
2022/04/23 07:32:22;;;;;;;12.67;9.80;;;14.20;98.30;;;;;;5083068;28;20048;-76
2022/04/23 07:37:33;;;;;;;;;;;14.00;98.90;;;;;;5100430;28;20032;-76
2022/04/23 07:40:02;;;;;;;12.23;9.53;;;13.90;98.60;;;;;;5080881;28;19924;-74
2022/04/23 07:42:28;;;;;;;13.97;9.83;;;13.90;99.30;;;;;;5076997;28;20040;-75
2022/04/23 07:44:54;;;;;;;12.23;9.37;;;13.90;99.90;;;;;;5077530;28;20043;-74
2022/04/23 07:47:20;;;;;;;10.77;8.17;;;13.90;98.30;;;;;;5079502;28;20118;-72
2022/04/23 07:49:46;;;;;;;14.07;8.90;;;13.90;97.90;;;;;;5080168;28;20079;-75
2022/04/23 07:52:12;;;;;;;9.50;8.00;;;13.90;96.90;;;;;;5063683;28;20066;-74
2022/04/23 07:54:39;;;;;;;15.03;7.87;;;13.90;96.20;;;;;;5062899;28;20036;-74
2022/04/23 07:57:06;;;;;;;10.07;7.53;;;13.90;96.40;;;;;;5070984;28;20042;-73
2022/04/23 07:59:31;;;;;;;12.00;8.17;;;14.00;95.20;;;;;;5063632;28;20495;-75
2022/04/23 08:01:57;;;;;;;12.10;8.30;;;13.90;95.10;;;;;;5082446;28;20055;-75
2022/04/23 08:04:23;;;;;;;12.13;7.90;;;13.90;95.60;;;;;;5055959;28;20109;-73
2022/04/23 08:06:49;;;;;;;13.03;7.77;;;14.10;95.40;;;;;;5072920;28;20040;-73
2022/04/23 08:09:14;;;;;;;10.27;7.47;;;14.20;95.90;;;;;;5056463;28;20500;-75
2022/04/23 08:11:42;;;;;;;29.73;8.33;;;14.20;94.90;;;;;;5068794;28;20032;-74
2022/04/23 08:14:07;;;;;;;13.97;8.33;;;14.30;94.30;;;;;;5076703;28;20063;-77
2022/04/23 08:16:33;;;;;;;9.80;7.77;;;14.20;93.50;;;;;;5066423;28;20541;-74
2022/04/23 08:18:59;;;;;;;8.53;7.03;;;14.30;94.40;;;;;;5071357;28;20070;-75
2022/04/23 08:21:25;;;;;;;15.93;8.13;;;14.40;94.10;;;;;;5074571;28;20419;-73
2022/04/23 08:23:50;;;;;;;14.17;7.80;;;14.50;94.50;;;;;;5070488;28;20110;-76
2022/04/23 08:26:16;;;;;;;10.63;7.87;;;14.60;94.10;;;;;;5077354;28;20499;-79
2022/04/23 08:31:28;;;;;;;10.93;8.23;;;14.70;93.50;;;;;;5077170;28;20521;-76
2022/04/23 08:34:03;;;;;;;9.70;7.40;;;14.90;93.10;;;;;;5066403;28;20051;-74
2022/04/23 08:36:30;;;;;;;108.90;11.93;;;15.10;92.70;;;;;;5066313;28;20090;-74
2022/04/23 08:38:57;;;;;;;13.23;8.17;;;15.40;92.40;;;;;;5076959;28;20039;-75
2022/04/23 08:41:28;;;;;;;14.77;8.10;;;15.60;91.40;;;;;;5077202;28;20699;-75
2022/04/23 08:44:05;;;;;;;10.53;8.07;;;15.90;91.70;;;;;;5073762;28;20040;-74
2022/04/23 08:46:32;;;;;;;13.90;7.53;;;16.10;89.40;;;;;;5071631;28;20691;-76
2022/04/23 08:49:11;;;;;;;16.17;7.40;;;16.30;89.00;;;;;;5054751;28;20162;-74
2022/04/23 08:51:38;;;;;;;13.70;7.97;;;16.60;86.10;;;;;;5073188;28;20036;-73
2022/04/23 08:54:07;;;;;;;13.77;8.03;;;17.00;85.00;;;;;;5054407;28;20444;-75
2022/04/23 08:56:34;;;;;;;9.63;7.93;;;17.10;83.00;;;;;;5046051;28;20045;-74
2022/04/23 08:59:02;;;;;;;10.97;8.40;;;17.30;82.00;;;;;;5059233;28;20126;-74
2022/04/23 09:01:32;;;;;;;9.70;7.93;;;17.40;79.70;;;;;;5051018;28;20043;-74
2022/04/23 09:03:59;;;;;;;17.57;8.40;;;17.40;78.60;;;;;;5069197;28;20039;-75
2022/04/23 09:06:33;;;;;;;13.20;8.20;;;17.30;79.50;;;;;;5065011;28;20052;-74
2022/04/23 09:09:11;;;;;;;17.50;8.07;;;17.30;80.90;;;;;;5087498;28;20128;-75
2022/04/23 09:11:39;;;;;;;13.10;7.53;;;17.30;78.40;;;;;;5054195;28;20044;-75
2022/04/23 09:14:08;;;;;;;10.07;7.77;;;17.20;77.70;;;;;;5056043;28;20067;-74
2022/04/23 09:25:05;;;;;;;13.93;7.53;;;17.10;80.80;;;;;;5062566;28;20083;-74
2022/04/23 09:27:31;;;;;;;11.33;7.20;;;17.00;77.20;;;;;;5053996;28;20051;-73
2022/04/23 09:29:59;;;;;;;15.37;7.77;;;17.00;77.10;;;;;;5077603;28;20036;-77
2022/04/23 09:32:27;;;;;;;14.67;7.87;;;17.10;78.10;;;;;;5061062;28;20047;-76
2022/04/23 09:35:04;;;;;;;14.87;7.37;;;17.20;76.30;;;;;;5066433;28;20467;-74
2022/04/23 09:38:11;;;;;;;15.47;7.80;;;17.40;75.20;;;;;;5077232;28;20120;-76
2022/04/23 09:40:21;;;;;;;10.23;7.70;;;17.80;77.40;;;;;;5074791;28;20097;-75
2022/04/23 09:42:57;;;;;;;13.47;7.87;;;18.50;72.50;;;;;;5072677;28;20051;-75
2022/04/23 09:45:27;;;;;;;11.27;8.30;;;19.10;71.50;;;;;;5071948;28;20101;-74
2022/04/23 09:47:53;;;;;;;11.53;7.80;;;19.60;71.40;;;;;;5078480;28;20059;-75
2022/04/23 09:50:19;;;;;;;10.43;7.63;;;20.00;70.40;;;;;;5055917;28;20093;-73
2022/04/23 09:52:46;;;;;;;9.60;7.70;;;20.40;65.40;;;;;;5083791;28;20052;-75
2022/04/23 09:55:12;;;;;;;11.07;7.30;;;20.40;63.50;;;;;;5078120;28;20484;-75
2022/04/23 09:57:38;;;;;;;12.63;7.57;;;20.70;64.20;;;;;;5051888;28;20029;-74
2022/04/23 10:00:05;;;;;;;16.77;8.23;;;21.20;62.80;;;;;;5045339;28;20048;-74
2022/04/23 10:02:33;;;;;;;10.77;7.70;;;21.20;59.40;;;;;;5061075;28;20037;-74
2022/04/23 10:05:01;;;;;;;8.67;7.53;;;21.40;57.60;;;;;;5077578;28;20572;-75
2022/04/23 10:07:29;;;;;;;15.37;7.93;;;21.50;56.50;;;;;;5064007;28;20442;-74
2022/04/23 10:09:57;;;;;;;10.57;7.50;;;21.70;54.10;;;;;;5047828;28;20422;-76
2022/04/23 10:12:25;;;;;;;12.17;7.77;;;21.80;54.70;;;;;;5063783;28;20428;-77
2022/04/23 10:14:58;;;;;;;12.63;7.33;;;21.70;54.90;;;;;;5053207;28;20032;-75
2022/04/23 10:17:25;;;;;;;8.88;7.88;;;21.90;53.20;;;;;;5050374;28;20095;-75
2022/04/23 10:19:52;;;;;;;13.53;7.67;;;21.90;52.70;;;;;;5069281;28;20048;-76
2022/04/23 10:22:21;;;;;;;9.63;7.10;;;21.90;53.70;;;;;;5070674;28;20075;-74
2022/04/23 10:24:55;;;;;;;11.73;7.80;;;21.90;52.80;;;;;;5059260;28;20574;-72
2022/04/23 10:27:25;;;;;;;8.45;7.55;;;21.90;52.50;;;;;;5076776;28;20061;-74
2022/04/23 10:29:54;;;;;;;15.83;7.43;;;21.90;53.00;;;;;;5068528;28;20044;-75
2022/04/23 10:32:20;;;;;;;10.87;7.70;;;22.10;51.40;;;;;;5077698;28;20442;-76
2022/04/23 10:34:46;;;;;;;13.03;7.17;;;22.10;49.90;;;;;;5073671;28;20452;-76
2022/04/23 10:37:17;;;;;;;8.13;7.33;;;22.10;50.20;;;;;;5079816;28;20560;-75
2022/04/23 10:39:44;;;;;;;9.43;6.60;;;22.00;49.80;;;;;;5080149;28;20144;-74
2022/04/23 10:42:13;;;;;;;10.13;7.33;;;21.90;51.60;;;;;;5079017;28;20051;-74
2022/04/23 10:44:40;;;;;;;10.70;8.00;;;21.80;52.40;;;;;;5074225;28;20044;-75
2022/04/23 10:47:11;;;;;;;8.57;6.90;;;21.80;50.10;;;;;;5064402;28;20035;-76
2022/04/23 10:49:37;;;;;;;11.10;7.70;;;21.70;51.20;;;;;;5065785;28;20047;-73
2022/04/23 10:52:03;;;;;;;9.53;7.77;;;21.50;49.70;;;;;;5072152;28;20067;-74
2022/04/23 10:54:56;;;;;;;10.07;6.87;;;21.20;48.80;;;;;;5059658;28;20087;-76
2022/04/23 10:57:23;;;;;;;12.73;7.57;;;20.90;49.90;;;;;;5047419;28;20048;-76
2022/04/23 10:59:49;;;;;;;9.30;6.57;;;20.70;50.40;;;;;;5050897;28;20044;-74
2022/04/23 11:02:30;;;;;;;11.27;6.63;;;20.70;50.80;;;;;;5064436;28;20090;-74
2022/04/23 11:12:14;;;;;;;9.47;6.97;;;20.70;49.90;;;;;;5088863;28;20054;-74
2022/04/23 11:13:23;;;;;;;7.40;6.60;;;20.50;50.30;;;;;;5072074;28;20041;-75
2022/04/23 11:16:09;;;;;;;8.93;6.70;;;20.40;48.40;;;;;;5069386;28;20124;-75
2022/04/23 11:18:35;;;;;;;11.90;6.50;;;20.50;51.00;;;;;;5049532;28;20154;-79
2022/04/23 11:21:06;;;;;;;12.13;7.10;;;20.60;50.20;;;;;;5075647;28;20044;-74
2022/04/23 11:23:34;;;;;;;11.03;7.07;;;20.60;51.80;;;;;;5089869;28;20031;-77
2022/04/23 11:26:02;;;;;;;10.10;6.17;;;20.60;49.80;;;;;;5068559;28;20043;-74
2022/04/23 11:28:29;;;;;;;11.20;6.80;;;20.70;48.70;;;;;;5076363;28;20044;-76
2022/04/23 11:30:57;;;;;;;12.20;7.10;;;20.70;49.40;;;;;;5057710;28;20032;-75
2022/04/23 11:33:23;;;;;;;12.43;6.97;;;20.90;47.80;;;;;;5071544;28;20525;-75
2022/04/23 11:35:49;;;;;;;17.23;6.70;;;20.90;51.20;;;;;;5074788;28;20040;-75
2022/04/23 11:38:20;;;;;;;9.37;6.07;;;21.10;50.50;;;;;;5068834;28;20384;-75
2022/04/23 11:40:45;;;;;;;12.50;6.47;;;21.30;49.40;;;;;;5058764;28;20055;-76
2022/04/23 11:43:27;;;;;;;11.40;6.63;;;21.40;47.30;;;;;;5082194;28;20098;-76
2022/04/23 11:45:57;;;;;;;10.83;5.70;;;21.30;46.50;;;;;;5038071;28;20052;-76
2022/04/23 11:48:23;;;;;;;8.30;6.10;;;21.20;45.40;;;;;;5078905;28;20048;-76
2022/04/23 11:50:49;;;;;;;6.57;5.63;;;21.30;46.00;;;;;;5080236;28;20427;-75
2022/04/23 11:53:15;;;;;;;6.20;5.60;;;21.30;45.30;;;;;;5073750;28;20047;-73
2022/04/23 11:55:40;;;;;;;6.60;5.50;;;21.30;46.60;;;;;;5057767;28;20039;-75
2022/04/23 11:58:06;;;;;;;6.27;5.30;;;21.30;47.30;;;;;;5076370;28;20051;-73
2022/04/23 12:00:34;;;;;;;8.57;5.87;;;21.50;47.50;;;;;;5054758;28;20495;-74
2022/04/23 12:03:00;;;;;;;10.30;6.00;;;21.60;45.60;;;;;;5069365;28;20048;-73
2022/04/23 12:05:29;;;;;;;11.00;6.57;;;21.70;46.30;;;;;;5068974;28;20040;-76
2022/04/23 12:07:55;;;;;;;9.67;6.73;;;21.80;44.40;;;;;;5071084;28;20040;-75
2022/04/23 12:10:25;;;;;;;7.60;6.90;;;21.70;45.80;;;;;;5083102;28;20097;-75
2022/04/23 12:12:51;;;;;;;7.43;6.07;;;21.50;47.90;;;;;;5080447;28;20048;-76
2022/04/23 12:15:20;;;;;;;8.50;6.43;;;21.50;46.00;;;;;;5052283;28;20572;-74
2022/04/23 12:17:48;;;;;;;9.07;5.90;;;21.40;46.30;;;;;;5061723;28;20174;-75
2022/04/23 12:20:15;;;;;;;7.47;5.77;;;21.20;45.70;;;;;;5065852;28;20044;-76
2022/04/23 12:22:54;;;;;;;7.37;5.50;;;21.10;45.70;;;;;;5078370;28;20399;-75
2022/04/23 12:25:21;;;;;;;6.83;5.20;;;21.10;47.40;;;;;;5075777;28;20075;-76
2022/04/23 12:42:01;;;;;;;7.30;4.90;;;21.00;45.80;;;;;;5091135;28;20036;-74
2022/04/23 12:44:35;;;;;;;6.57;4.50;;;21.10;43.20;;;;;;5072555;28;20052;-75
2022/04/23 12:47:03;;;;;;;9.57;4.57;;;21.10;41.90;;;;;;5079106;28;20031;-74
2022/04/23 12:49:50;;;;;;;6.57;4.80;;;20.90;42.80;;;;;;5070384;28;20056;-76
2022/04/23 12:52:20;;;;;;;6.20;4.87;;;21.00;43.10;;;;;;5078347;28;20139;-76
2022/04/23 12:55:14;;;;;;;9.83;5.30;;;21.00;43.40;;;;;;5078357;28;20066;-77
2022/04/23 12:57:41;;;;;;;9.52;4.45;;;21.00;43.70;;;;;;5068784;28;20055;-76
2022/04/23 13:00:08;;;;;;;7.67;5.07;;;21.00;43.80;;;;;;5078185;28;20519;-75
2022/04/23 13:02:35;;;;;;;7.53;4.47;;;21.00;44.40;;;;;;5059043;28;20467;-78
2022/04/23 13:05:03;;;;;;;5.83;4.73;;;21.00;41.80;;;;;;5058427;28;20067;-76
2022/04/23 13:10:13;;;;;;;6.33;4.53;;;20.90;42.30;;;;;;5078998;28;20048;-76
2022/04/23 13:12:39;;;;;;;5.67;4.83;;;20.90;42.90;;;;;;5069753;28;20054;-74
2022/04/23 13:15:06;;;;;;;5.37;4.00;;;21.00;44.20;;;;;;5083775;28;20047;-77
2022/04/23 13:17:31;;;;;;;8.63;4.07;;;21.20;43.30;;;;;;5069214;28;20047;-74
2022/04/23 13:19:57;;;;;;;5.27;4.10;;;21.30;42.10;;;;;;5070751;28;20040;-75